createdAt,value
2022-08-24T00:04:00.033Z,5.00
2022-08-24T00:09:04.826Z,4.80
2022-08-24T00:14:08.314Z,5.20
2022-08-24T00:19:11.614Z,5.00
2022-08-24T00:24:14.879Z,4.90
2022-08-24T00:29:18.852Z,4.70
2022-08-24T00:34:22.061Z,5.40
2022-08-24T00:39:25.069Z,5.00
2022-08-24T00:44:28.074Z,5.70
2022-08-24T00:49:39.686Z,5.30
2022-08-24T00:54:47.624Z,5.00
2022-08-24T00:59:55.649Z,5.50
2022-08-24T01:05:02.017Z,4.80
2022-08-24T01:10:12.296Z,5.40
2022-08-24T01:15:16.655Z,5.30
2022-08-24T01:20:21.582Z,5.40
2022-08-24T01:25:27.145Z,5.50
2022-08-24T01:30:36.700Z,5.30
2022-08-24T01:35:40.159Z,5.70
2022-08-24T01:40:51.117Z,5.00
2022-08-24T01:45:54.329Z,5.40
2022-08-24T01:50:57.437Z,4.20
2022-08-24T01:56:00.453Z,4.90
2022-08-24T02:01:03.757Z,4.80
2022-08-24T02:06:07.254Z,5.00
2022-08-24T02:11:10.386Z,5.30
2022-08-24T02:16:15.001Z,5.10
2022-08-24T02:21:18.142Z,5.00
2022-08-24T02:26:21.969Z,5.30
2022-08-24T02:31:25.536Z,5.30
2022-08-24T02:36:29.005Z,5.90
2022-08-24T02:41:32.416Z,5.40
2022-08-24T02:46:36.596Z,5.60
2022-08-24T02:51:44.773Z,5.40
2022-08-24T02:56:48.931Z,6.20
2022-08-24T03:01:52.349Z,5.80
2022-08-24T03:06:55.335Z,4.50
2022-08-24T03:11:58.444Z,5.60
2022-08-24T03:17:01.600Z,5.90
2022-08-24T03:22:05.215Z,5.80
2022-08-24T03:27:08.331Z,5.80
2022-08-24T03:32:12.119Z,4.70
2022-08-24T03:37:16.497Z,5.00
2022-08-24T03:42:19.450Z,4.50
2022-08-24T03:47:23.121Z,4.80
2022-08-24T03:52:28.242Z,4.40
2022-08-24T03:57:33.083Z,4.30
2022-08-24T04:02:36.754Z,4.90
2022-08-24T04:07:39.812Z,4.50
2022-08-24T04:12:42.816Z,4.40
2022-08-24T04:17:45.824Z,4.20
2022-08-24T04:22:48.825Z,4.10
2022-08-24T04:27:52.140Z,4.60
2022-08-24T04:32:55.558Z,4.10
2022-08-24T04:37:58.565Z,4.40
2022-08-24T04:43:01.973Z,3.80
2022-08-24T04:48:06.239Z,4.20
2022-08-24T04:53:11.379Z,4.20
2022-08-24T04:58:15.534Z,4.00
2022-08-24T05:03:19.310Z,3.50
2022-08-24T05:08:22.336Z,3.90
2022-08-24T05:13:25.444Z,3.50
2022-08-24T05:18:33.699Z,3.70
2022-08-24T05:23:38.101Z,3.30
2022-08-24T05:28:41.222Z,3.50
2022-08-24T05:33:48.847Z,3.60
2022-08-24T05:38:54.510Z,3.10
2022-08-24T05:43:57.957Z,3.30
2022-08-24T05:49:01.747Z,3.10
2022-08-24T05:54:06.462Z,2.70
2022-08-24T05:59:09.814Z,2.50
2022-08-24T06:04:13.435Z,2.90
2022-08-24T06:09:16.851Z,2.90
2022-08-24T06:14:23.875Z,2.70
2022-08-24T06:19:29.720Z,2.30
2022-08-24T06:24:51.369Z,2.60
2022-08-24T06:30:09.833Z,2.50
2022-08-24T06:40:16.097Z,2.90
2022-08-24T06:45:19.364Z,2.30
2022-08-24T06:50:24.468Z,2.40
2022-08-24T06:55:28.009Z,2.20
2022-08-24T07:00:33.605Z,2.00
2022-08-24T07:05:36.617Z,2.00
2022-08-24T07:10:43.001Z,2.40
2022-08-24T07:15:46.099Z,2.40
2022-08-24T07:20:50.495Z,1.80
2022-08-24T07:25:56.109Z,2.40
2022-08-24T07:31:00.236Z,2.40
2022-08-24T07:36:03.666Z,2.40
2022-08-24T07:41:36.467Z,2.80
2022-08-24T07:46:30.993Z,2.10
2022-08-24T07:51:34.617Z,2.20
2022-08-24T07:56:38.020Z,2.20
2022-08-24T08:01:42.492Z,2.40
2022-08-24T08:06:45.712Z,2.00
2022-08-24T08:11:49.540Z,2.20
2022-08-24T08:16:52.597Z,2.20
2022-08-24T08:22:14.345Z,2.30
2022-08-24T08:27:17.705Z,1.90
2022-08-24T08:32:21.588Z,2.30
2022-08-24T08:37:26.187Z,2.10
2022-08-24T08:42:44.745Z,2.10
2022-08-24T08:48:09.000Z,2.10
2022-08-24T08:53:38.572Z,2.30
2022-08-24T08:58:59.410Z,2.20
2022-08-24T09:04:38.454Z,2.40
2022-08-24T09:10:17.908Z,2.50
2022-08-24T09:15:40.232Z,2.40
2022-08-24T09:21:14.574Z,3.00
2022-08-24T09:26:19.171Z,2.90
2022-08-24T09:31:41.685Z,2.50
2022-08-24T09:37:29.241Z,2.40
2022-08-24T09:42:54.358Z,2.30
2022-08-24T09:48:26.549Z,3.00
2022-08-24T09:53:48.195Z,3.10
2022-08-24T09:59:06.971Z,2.70
2022-08-24T10:04:28.711Z,2.90
2022-08-24T10:09:47.650Z,2.90
2022-08-24T10:14:56.644Z,2.70
2022-08-24T10:20:29.673Z,2.70
2022-08-24T10:26:03.503Z,2.80
2022-08-24T10:31:13.084Z,2.80
2022-08-24T10:36:47.073Z,3.20
2022-08-24T10:42:05.443Z,3.00
2022-08-24T10:47:20.832Z,3.20
2022-08-24T10:52:39.005Z,3.00
2022-08-24T10:58:20.819Z,3.10
2022-08-24T11:03:28.276Z,2.90
2022-08-24T11:08:35.540Z,3.00
2022-08-24T11:13:54.251Z,3.30
2022-08-24T11:19:00.697Z,2.60
2022-08-24T11:24:27.668Z,2.70
2022-08-24T11:29:52.400Z,2.90
2022-08-24T11:34:55.904Z,2.80
2022-08-24T11:39:58.948Z,3.00
2022-08-24T11:45:25.261Z,2.80
2022-08-24T11:50:30.214Z,2.80
2022-08-24T11:55:46.815Z,2.80
2022-08-24T12:01:01.312Z,2.70
2022-08-24T12:06:32.265Z,3.70
2022-08-24T12:11:42.041Z,3.70
2022-08-24T12:17:00.920Z,3.30
2022-08-24T12:22:07.817Z,2.90
2022-08-24T12:27:18.503Z,2.90
2022-08-24T12:32:27.347Z,3.10
2022-08-24T12:37:33.237Z,2.70
2022-08-24T12:42:59.064Z,2.80
2022-08-24T12:48:17.576Z,3.60
2022-08-24T12:53:32.629Z,3.40
2022-08-24T12:58:53.904Z,3.40
2022-08-24T13:04:10.284Z,3.10
2022-08-24T13:09:26.286Z,2.90
2022-08-24T13:14:30.525Z,3.30
2022-08-24T13:19:40.504Z,3.20
2022-08-24T13:25:06.234Z,3.60
2022-08-24T13:30:21.843Z,3.60
2022-08-24T13:35:40.100Z,3.00
2022-08-24T13:40:53.631Z,3.50
2022-08-24T13:46:13.305Z,3.40
2022-08-24T13:51:34.891Z,3.30
2022-08-24T13:56:47.528Z,3.40
2022-08-24T14:02:16.238Z,3.50
2022-08-24T14:07:28.173Z,3.40
2022-08-24T14:12:31.256Z,3.90
2022-08-24T14:18:11.542Z,3.30
2022-08-24T14:23:39.639Z,3.20
2022-08-24T14:28:44.323Z,3.80
2022-08-24T14:34:24.921Z,2.90
2022-08-24T14:39:52.573Z,3.80
2022-08-24T14:45:07.742Z,3.40
2022-08-24T14:50:16.279Z,3.20
2022-08-24T14:55:30.046Z,3.10
2022-08-24T15:00:57.725Z,3.80
2022-08-24T15:06:29.307Z,3.40
2022-08-24T15:11:35.926Z,3.10
2022-08-24T15:16:39.010Z,3.20
2022-08-24T15:22:08.744Z,3.30
2022-08-24T15:27:42.868Z,3.30
2022-08-24T15:32:55.811Z,3.10
2022-08-24T15:38:20.449Z,4.20
2022-08-24T15:43:23.536Z,3.70
2022-08-24T15:48:27.307Z,3.40
2022-08-24T15:53:42.760Z,3.20
2022-08-24T15:58:47.433Z,3.60
2022-08-24T16:03:52.341Z,3.50
2022-08-24T16:09:17.243Z,3.60
2022-08-24T16:14:38.912Z,3.50
2022-08-24T16:19:50.044Z,3.30
2022-08-24T16:25:09.541Z,3.50
2022-08-24T16:35:39.068Z,3.30
2022-08-24T16:40:43.820Z,3.90
2022-08-24T16:45:55.059Z,3.50
2022-08-24T16:50:58.708Z,3.60
2022-08-24T16:56:04.352Z,3.30
2022-08-24T17:01:07.548Z,3.20
2022-08-24T17:06:14.960Z,4.10
2022-08-24T17:11:18.271Z,3.80
2022-08-24T17:16:21.846Z,4.30
2022-08-24T17:21:27.023Z,3.80
2022-08-24T17:26:31.441Z,4.10
2022-08-24T17:31:34.520Z,3.70
2022-08-24T17:36:39.261Z,3.70
2022-08-24T17:41:42.337Z,3.40
2022-08-24T17:46:47.897Z,3.50
2022-08-24T17:51:50.894Z,4.00
2022-08-24T17:56:53.914Z,3.50
2022-08-24T18:02:09.608Z,3.90
2022-08-24T18:07:35.888Z,3.50
2022-08-24T18:12:41.552Z,3.80
2022-08-24T18:17:50.176Z,3.50
2022-08-24T18:22:54.449Z,3.80
2022-08-24T18:27:58.849Z,3.60
2022-08-24T18:33:02.151Z,3.70
2022-08-24T18:38:05.261Z,4.50
2022-08-24T18:43:09.130Z,4.00
2022-08-24T18:48:12.091Z,4.50
2022-08-24T18:53:16.123Z,4.00
2022-08-24T18:58:19.129Z,4.20
2022-08-24T19:03:24.094Z,4.20
2022-08-24T19:08:27.089Z,4.30
2022-08-24T19:13:30.097Z,3.80
2022-08-24T19:18:34.947Z,4.20
2022-08-24T19:23:40.574Z,4.30
2022-08-24T19:28:43.617Z,4.00
2022-08-24T19:33:48.914Z,4.00
2022-08-24T19:38:55.920Z,4.80
2022-08-24T19:44:27.313Z,4.40
2022-08-24T19:49:30.976Z,5.10
2022-08-24T19:54:38.388Z,4.70
2022-08-24T19:59:43.846Z,5.20
2022-08-24T20:04:50.046Z,4.40
2022-08-24T20:09:53.150Z,4.80
2022-08-24T20:14:56.895Z,4.20
2022-08-24T20:19:59.974Z,4.00
2022-08-24T20:25:03.645Z,4.60
2022-08-24T20:30:08.141Z,4.50
2022-08-24T20:35:11.535Z,4.00
2022-08-24T20:40:17.281Z,4.40
2022-08-24T20:45:20.545Z,4.80
2022-08-24T20:50:24.800Z,3.90
2022-08-24T20:55:27.980Z,4.70
2022-08-24T21:00:31.557Z,5.00
2022-08-24T21:05:34.473Z,4.30
2022-08-24T21:10:37.614Z,4.90
2022-08-24T21:15:41.728Z,5.00
2022-08-24T21:20:58.218Z,4.70
2022-08-24T21:26:10.736Z,5.10
2022-08-24T21:31:13.727Z,5.00
2022-08-24T21:36:17.020Z,4.50
2022-08-24T21:41:20.346Z,4.90
2022-08-24T21:46:36.376Z,4.80
2022-08-24T21:51:40.274Z,4.70
2022-08-24T21:56:43.379Z,4.80
2022-08-24T22:01:46.430Z,5.40
2022-08-24T22:06:50.116Z,4.50
2022-08-24T22:11:54.118Z,4.60
2022-08-24T22:16:57.150Z,5.20
2022-08-24T22:22:00.254Z,4.90
2022-08-24T22:27:04.186Z,4.90
2022-08-24T22:32:07.393Z,5.30
2022-08-24T22:37:10.403Z,4.60
2022-08-24T22:42:13.405Z,5.10
2022-08-24T22:47:16.519Z,5.60
2022-08-24T22:52:19.727Z,4.60
2022-08-24T22:57:22.835Z,4.70
2022-08-24T23:02:26.047Z,5.10
2022-08-24T23:07:29.056Z,5.20
2022-08-24T23:12:32.411Z,4.90
2022-08-24T23:17:35.380Z,5.50
2022-08-24T23:22:41.072Z,5.30
2022-08-24T23:27:46.597Z,5.20
2022-08-24T23:32:52.379Z,5.80
2022-08-24T23:37:55.387Z,5.20
2022-08-24T23:42:58.599Z,5.10
2022-08-24T23:48:02.614Z,5.00
2022-08-24T23:53:05.634Z,6.00
2022-08-24T23:58:08.641Z,5.80
